Time;durP1;ratioP1;P1;durP2;ratioP2;P2;SDS_P1;SDS_P2;PMS_P1;PMS_P2;Temp;Humidity;BMP_temperature;BMP_pressure;BME280_temperature;BME280_humidity;BME280_pressure;Samples;Min_cycle;Max_cycle;Signal;HPM_P1;HPM_P2
2021/05/11 00:01:09;;;;;;;6.88;2.67;;;;;;;12.29;52.17;94170.38;5130421;27;20106;-76
2021/05/11 00:03:35;;;;;;;4.20;2.30;;;;;;;12.24;52.30;94171.31;5118763;27;20096;-76
2021/05/11 00:06:01;;;;;;;5.57;2.88;;;;;;;12.22;52.48;94170.06;5119212;27;20016;-76
2021/05/11 00:08:26;;;;;;;6.93;2.78;;;;;;;12.21;52.80;94174.63;5119747;27;20110;-77
2021/05/11 00:10:52;;;;;;;11.43;2.97;;;;;;;12.21;52.86;94174.63;5128031;27;20030;-76
2021/05/11 00:13:17;;;;;;;5.60;2.63;;;;;;;12.15;53.64;94175.09;5116771;27;20422;-76
2021/05/11 00:15:43;;;;;;;7.65;3.08;;;;;;;12.05;53.84;94165.53;5127702;27;20055;-77
2021/05/11 00:18:09;;;;;;;8.93;3.30;;;;;;;12.04;54.14;94164.72;5127948;27;20023;-77
2021/05/11 00:20:35;;;;;;;5.22;3.15;;;;;;;12.01;53.96;94168.03;5129764;27;20414;-76
2021/05/11 00:23:00;;;;;;;7.40;3.03;;;;;;;11.96;53.34;94156.72;5130076;27;20023;-76
2021/05/11 00:25:26;;;;;;;7.90;3.47;;;;;;;11.84;53.09;94166.13;5131362;27;20026;-75
2021/05/11 00:27:51;;;;;;;13.52;3.50;;;;;;;11.72;53.17;94157.91;5126935;27;20072;-76
2021/05/11 00:30:17;;;;;;;9.10;2.65;;;;;;;11.62;53.35;94168.88;5128272;27;20023;-75
2021/05/11 00:32:42;;;;;;;5.80;2.70;;;;;;;11.57;53.69;94169.81;5129797;27;20035;-76
2021/05/11 00:35:08;;;;;;;6.43;3.10;;;;;;;11.52;53.38;94172.66;5129737;27;20026;-76
2021/05/11 00:37:35;;;;;;;5.00;3.20;;;;;;;11.53;53.43;94171.53;5131284;27;20027;-76
2021/05/11 00:40:01;;;;;;;6.45;3.13;;;;;;;11.50;53.16;94169.50;5128957;27;20031;-76
2021/05/11 00:42:27;;;;;;;3.38;2.45;;;;;;;11.50;52.66;94158.84;5130892;27;20048;-76
2021/05/11 00:44:52;;;;;;;7.60;2.90;;;;;;;11.44;52.76;94165.41;5127090;27;20096;-76
2021/05/11 00:47:18;;;;;;;5.57;2.67;;;;;;;11.39;52.93;94154.88;5126123;27;20023;-77
2021/05/11 00:49:43;;;;;;;5.13;2.63;;;;;;;11.37;53.40;94155.19;5126753;27;20038;-76
2021/05/11 00:52:08;;;;;;;7.10;2.53;;;;;;;11.39;53.49;94147.66;5126701;27;20027;-76
2021/05/11 00:54:35;;;;;;;6.35;2.42;;;;;;;11.36;54.12;94156.28;5126224;27;20055;-77
2021/05/11 00:57:04;;;;;;;8.60;3.00;;;;;;;11.31;53.93;94153.75;5127188;27;20022;-77
2021/05/11 00:59:30;;;;;;;4.25;2.60;;;;;;;11.30;53.86;94146.06;5129260;27;20055;-77
2021/05/11 01:01:57;;;;;;;5.50;2.55;;;;;;;11.27;54.36;94147.47;5129406;27;20023;-76
2021/05/11 01:04:24;;;;;;;5.85;3.33;;;;;;;11.32;54.13;94144.66;5129534;27;20031;-77
2021/05/11 01:06:50;;;;;;;5.32;3.13;;;;;;;11.35;54.61;94149.38;5129432;27;20114;-77
2021/05/11 01:09:16;;;;;;;8.15;2.90;;;;;;;11.36;54.81;94145.63;5126374;27;20119;-77
2021/05/11 01:11:42;;;;;;;10.77;2.85;;;;;;;11.29;54.69;94139.94;5125550;28;20027;-77
2021/05/11 01:14:08;;;;;;;9.68;2.92;;;;;;;11.30;54.70;94146.06;5129066;27;20149;-76
2021/05/11 01:16:34;;;;;;;5.72;2.80;;;;;;;11.27;54.36;94144.78;5130565;27;20113;-76
2021/05/11 01:19:47;;;;;;;5.05;2.25;;;;;;;11.29;54.11;94141.81;5127540;28;20129;-77
2021/05/11 01:22:06;;;;;;;5.72;2.75;;;;;;;11.27;54.64;94136.78;5122660;27;20035;-77
2021/05/11 01:24:38;;;;;;;4.22;2.40;;;;;;;11.20;54.52;94136.47;5127273;28;20435;-77
2021/05/11 01:27:24;;;;;;;5.80;2.38;;;;;;;11.19;54.75;94133.03;5118810;28;20095;-76
2021/05/11 01:54:01;;;;;;;5.45;2.65;;;;;;;10.89;55.73;94123.97;5126370;27;20039;-76
2021/05/11 02:18:04;;;;;;;5.68;3.15;;;;;;;10.63;55.95;94113.97;5113453;28;20084;-76
2021/05/11 02:23:14;;;;;;;7.63;3.47;;;;;;;10.55;55.85;94114.72;5116684;27;20039;-76
2021/05/11 02:25:39;;;;;;;12.45;3.75;;;;;;;10.51;55.87;94113.75;5132219;27;20914;-76
2021/05/11 02:28:04;;;;;;;14.10;4.07;;;;;;;10.46;55.97;94108.53;5129419;27;20024;-76
2021/05/11 02:30:30;;;;;;;6.63;3.35;;;;;;;10.43;56.40;94109.94;5130865;27;20031;-76
2021/05/11 02:32:56;;;;;;;12.70;3.92;;;;;;;10.41;56.54;94101.47;5133596;27;20466;-76
2021/05/11 02:35:21;;;;;;;12.48;3.60;;;;;;;10.38;56.67;94099.44;5131391;27;20019;-75
2021/05/11 02:37:47;;;;;;;5.07;3.28;;;;;;;10.39;56.55;94110.88;5112721;28;20106;-76
2021/05/11 02:40:15;;;;;;;18.73;3.95;;;;;;;10.35;56.70;94107.25;5115856;27;20027;-76
2021/05/11 02:42:42;;;;;;;6.35;3.60;;;;;;;10.33;56.70;94096.88;5131773;27;20063;-76
2021/05/11 02:45:11;;;;;;;9.35;3.90;;;;;;;10.37;56.46;94105.84;5129548;27;20023;-76
2021/05/11 02:47:47;;;;;;;7.65;3.85;;;;;;;10.32;56.99;94098.00;5131757;27;20106;-77
2021/05/11 02:50:25;;;;;;;8.93;3.60;;;;;;;10.30;57.20;94105.50;5129042;27;20079;-77
2021/05/11 02:52:51;;;;;;;18.98;3.95;;;;;;;10.27;56.83;94099.97;5128480;27;20111;-76
2021/05/11 02:55:18;;;;;;;14.80;4.72;;;;;;;10.22;57.07;94099.00;5128564;27;20068;-76
2021/05/11 02:57:44;;;;;;;6.95;4.05;;;;;;;10.24;57.42;94110.13;5129090;27;20031;-77
2021/05/11 03:00:12;;;;;;;6.10;3.92;;;;;;;10.23;57.98;94099.78;5128299;27;20029;-77
2021/05/11 03:02:38;;;;;;;8.43;4.63;;;;;;;10.24;58.34;94106.69;5128969;27;20042;-77
2021/05/11 03:05:04;;;;;;;8.43;4.70;;;;;;;10.28;58.49;94106.84;5130567;27;20031;-77
2021/05/11 03:07:30;;;;;;;7.75;4.20;;;;;;;10.27;58.14;94110.63;5128201;27;20023;-76
2021/05/11 03:09:56;;;;;;;15.88;4.10;;;;;;;10.25;57.49;94103.69;5132730;27;20042;-77
2021/05/11 03:12:22;;;;;;;6.70;3.58;;;;;;;10.22;57.12;94104.31;5132741;27;20031;-77
2021/05/11 03:14:48;;;;;;;9.48;3.70;;;;;;;10.17;57.45;94093.00;5132831;27;20027;-77
2021/05/11 03:17:13;;;;;;;9.13;4.00;;;;;;;10.12;57.87;94093.13;5130049;27;20028;-77
2021/05/11 03:19:39;;;;;;;8.93;3.95;;;;;;;10.07;57.78;94096.69;5128344;27;20092;-76
2021/05/11 03:22:04;;;;;;;11.38;3.30;;;;;;;10.01;57.85;94093.38;5119827;27;20093;-76
2021/05/11 03:24:30;;;;;;;5.43;3.45;;;;;;;9.98;57.70;94087.88;5126200;27;20402;-77
2021/05/11 03:26:56;;;;;;;5.80;3.53;;;;;;;9.98;57.51;94099.31;5127268;27;20031;-76
2021/05/11 03:29:21;;;;;;;5.68;3.05;;;;;;;10.00;57.70;94102.44;5130860;27;20019;-76
2021/05/11 03:31:46;;;;;;;5.38;3.13;;;;;;;10.05;57.48;94101.53;5113859;27;20051;-76
2021/05/11 03:34:12;;;;;;;4.95;3.00;;;;;;;10.03;57.56;94095.72;5128633;27;20019;-77
2021/05/11 03:36:37;;;;;;;5.35;2.78;;;;;;;10.10;57.55;94104.09;5111747;28;20050;-77
2021/05/11 03:39:06;;;;;;;8.95;3.80;;;;;;;10.19;57.04;94093.47;5127407;27;20372;-77
2021/05/11 03:41:39;;;;;;;5.45;3.22;;;;;;;10.21;56.98;94099.28;5111878;28;20027;-77
2021/05/11 03:44:09;;;;;;;6.88;3.50;;;;;;;10.27;56.76;94095.41;5111562;28;20530;-77
2021/05/11 03:46:36;;;;;;;12.20;3.30;;;;;;;10.34;56.53;94085.16;5127441;27;20023;-76
2021/05/11 03:49:03;;;;;;;6.28;3.25;;;;;;;10.38;56.46;94098.63;5127215;27;20084;-77
2021/05/11 03:51:29;;;;;;;7.95;3.95;;;;;;;10.40;56.78;94097.25;5126124;27;20534;-77
2021/05/11 03:53:54;;;;;;;4.78;2.67;;;;;;;10.47;56.86;94094.13;5121881;27;20024;-76
2021/05/11 03:56:20;;;;;;;9.45;2.97;;;;;;;10.46;56.84;94097.88;5130391;27;20015;-76
2021/05/11 03:58:45;;;;;;;6.60;2.80;;;;;;;10.47;57.00;94093.34;5127960;27;20031;-76
2021/05/11 04:01:11;;;;;;;8.52;3.63;;;;;;;10.53;56.61;94090.25;5126526;27;20521;-76
2021/05/11 04:03:36;;;;;;;7.72;3.25;;;;;;;10.53;56.18;94092.91;5111251;28;20107;-76
2021/05/11 04:06:03;;;;;;;11.50;3.53;;;;;;;10.58;56.03;94097.31;5128239;27;20025;-76
2021/05/11 04:11:01;;;;;;;8.32;3.72;;;;;;;10.61;56.43;94094.06;5113971;27;20410;-76
2021/05/11 04:16:26;;;;;;;10.00;4.03;;;;;;;10.59;56.28;94105.00;5090104;27;20533;-77
2021/05/11 04:18:52;;;;;;;16.60;4.93;;;;;;;10.45;56.47;94104.31;5123989;27;20374;-78
2021/05/11 04:21:18;;;;;;;11.18;4.13;;;;;;;10.44;56.95;94108.06;5129555;27;20051;-77
2021/05/11 04:23:45;;;;;;;7.63;4.30;;;;;;;10.37;56.87;94099.72;5117139;27;20027;-77
2021/05/11 04:26:12;;;;;;;10.38;4.20;;;;;;;10.38;57.04;94099.44;5113579;27;20486;-77
2021/05/11 04:28:37;;;;;;;9.32;3.97;;;;;;;10.42;56.90;94102.25;5126614;27;20486;-77
2021/05/11 04:31:07;;;;;;;12.23;5.00;;;;;;;10.48;57.15;94098.34;5115610;27;20023;-77
2021/05/11 04:33:33;;;;;;;8.90;4.28;;;;;;;10.53;57.23;94103.56;5129731;27;20145;-77
2021/05/11 04:35:59;;;;;;;11.05;4.43;;;;;;;10.60;56.18;94101.28;5128488;27;20019;-77
2021/05/11 04:38:24;;;;;;;12.45;4.28;;;;;;;10.68;56.59;94104.28;5130760;27;20030;-77
2021/05/11 04:40:50;;;;;;;8.35;4.53;;;;;;;10.73;56.15;94093.47;5130991;27;20023;-77
2021/05/11 04:43:16;;;;;;;17.48;4.50;;;;;;;10.81;55.75;94098.84;5129659;27;20023;-77
2021/05/11 04:45:42;;;;;;;10.27;4.38;;;;;;;10.89;55.78;94091.97;5131114;27;20031;-77
2021/05/11 04:48:08;;;;;;;12.25;5.22;;;;;;;10.95;55.73;94089.94;5130275;27;20033;-77
2021/05/11 04:50:34;;;;;;;10.43;4.97;;;;;;;11.08;55.51;94094.38;5119677;27;20033;-77
2021/05/11 04:53:00;;;;;;;13.52;4.53;;;;;;;11.15;55.23;94093.91;5126054;27;20071;-76
2021/05/11 04:55:27;;;;;;;15.85;4.63;;;;;;;11.27;55.23;94096.75;5125972;27;20019;-76
2021/05/11 04:57:52;;;;;;;15.20;4.57;;;;;;;11.30;55.03;94093.50;5128466;27;20025;-77
2021/05/11 05:00:18;;;;;;;11.43;4.72;;;;;;;11.28;55.11;94095.69;5129640;27;20466;-76
2021/05/11 05:02:45;;;;;;;10.25;4.28;;;;;;;11.32;55.34;94091.28;5128756;27;20106;-77
2021/05/11 05:05:12;;;;;;;9.95;4.85;;;;;;;11.43;54.97;94086.44;5124914;27;20073;-77
2021/05/11 05:07:39;;;;;;;18.52;5.50;;;;;;;11.50;54.33;94088.63;5129280;27;20015;-77
2021/05/11 05:10:05;;;;;;;10.25;5.40;;;;;;;11.51;54.13;94093.66;5126309;28;20015;-77
2021/05/11 05:12:31;;;;;;;9.85;4.43;;;;;;;11.53;53.94;94086.13;5118655;28;20027;-77
2021/05/11 05:14:57;;;;;;;17.92;4.90;;;;;;;11.56;54.18;94090.03;5127770;28;20019;-77
2021/05/11 05:17:22;;;;;;;9.80;4.80;;;;;;;11.67;53.71;94088.66;5129465;27;20474;-76
2021/05/11 05:19:48;;;;;;;20.60;4.97;;;;;;;11.74;53.37;94091.63;5128771;28;20095;-76
2021/05/11 05:22:14;;;;;;;11.88;4.97;;;;;;;11.77;52.76;94085.66;5129463;28;20038;-77
2021/05/11 05:25:08;;;;;;;18.85;5.35;;;;;;;11.79;52.84;94096.03;5127595;28;20030;-77
2021/05/11 05:27:39;;;;;;;19.00;5.00;;;;;;;11.81;53.04;94083.94;5123638;27;20040;-76
2021/05/11 05:30:05;;;;;;;15.25;4.55;;;;;;;11.91;53.06;94085.53;5130016;27;20023;-77
2021/05/11 05:32:30;;;;;;;17.08;4.95;;;;;;;11.95;53.00;94086.47;5114071;28;20161;-77
2021/05/11 05:34:56;;;;;;;15.32;4.95;;;;;;;12.06;51.91;94080.81;5116784;27;20478;-77
2021/05/11 05:37:21;;;;;;;12.48;4.47;;;;;;;12.09;51.96;94085.50;5134969;27;20027;-77
2021/05/11 05:39:49;;;;;;;9.45;4.53;;;;;;;12.08;51.74;94091.97;5131397;27;20027;-76
2021/05/11 05:42:15;;;;;;;11.20;4.70;;;;;;;12.17;52.21;94087.38;5132487;27;20027;-76
2021/05/11 05:44:40;;;;;;;12.75;5.47;;;;;;;12.24;52.06;94077.78;5133004;27;20049;-76
2021/05/11 05:47:05;;;;;;;17.25;5.22;;;;;;;12.35;51.87;94077.44;5129324;27;20023;-77
2021/05/11 05:49:42;;;;;;;7.60;5.00;;;;;;;12.50;51.85;94076.94;5128412;27;20054;-78
2021/05/11 05:52:10;;;;;;;9.52;4.93;;;;;;;12.68;52.07;94085.72;5132863;27;20088;-78
2021/05/11 05:54:35;;;;;;;19.15;6.40;;;;;;;12.81;51.50;94083.91;5132991;27;20031;-78
2021/05/11 05:57:00;;;;;;;14.85;4.40;;;;;;;12.93;50.62;94075.22;5123211;27;20016;-78
2021/05/11 05:59:26;;;;;;;9.73;4.45;;;;;;;12.97;50.17;94089.53;5132165;27;20031;-78
2021/05/11 06:01:53;;;;;;;17.85;5.13;;;;;;;13.03;49.49;94080.97;5131513;27;20023;-77
2021/05/11 06:04:22;;;;;;;10.20;4.45;;;;;;;13.13;49.35;94084.41;5132318;27;20419;-76
2021/05/11 06:06:49;;;;;;;12.82;5.00;;;;;;;13.11;49.86;94075.88;5133981;27;20106;-78
2021/05/11 06:09:21;;;;;;;15.52;4.57;;;;;;;13.20;49.66;94080.09;5130336;27;20027;-76
2021/05/11 06:11:50;;;;;;;12.43;4.88;;;;;;;13.35;50.30;94086.03;5128576;27;20035;-76
2021/05/11 06:17:13;;;;;;;15.40;4.88;;;;;;;13.55;48.71;94077.22;5112752;28;20471;-76
2021/05/11 06:19:40;;;;;;;17.65;4.65;;;;;;;13.66;48.27;94077.63;5126800;27;20038;-76
2021/05/11 06:22:05;;;;;;;15.50;4.72;;;;;;;13.72;48.85;94073.66;5114607;27;20510;-76
2021/05/11 06:24:31;;;;;;;13.63;4.70;;;;;;;13.80;48.39;94070.13;5130319;27;20046;-76
2021/05/11 06:26:56;;;;;;;15.98;4.95;;;;;;;13.94;48.17;94071.72;5116289;27;20027;-76
2021/05/11 06:29:24;;;;;;;17.90;5.50;;;;;;;14.05;48.09;94070.22;5128484;27;20535;-76
2021/05/11 06:31:50;;;;;;;18.90;4.85;;;;;;;14.14;48.13;94062.88;5124578;27;20031;-77
2021/05/11 06:34:15;;;;;;;15.02;5.05;;;;;;;14.14;48.43;94060.19;5131653;27;20033;-77
2021/05/11 06:36:40;;;;;;;24.73;5.35;;;;;;;14.14;48.16;94068.22;5131929;27;20084;-77
2021/05/11 06:39:11;;;;;;;9.50;4.60;;;;;;;14.17;47.97;94064.13;5130159;27;20118;-77
2021/05/11 06:41:37;;;;;;;18.08;5.32;;;;;;;14.27;48.17;94068.28;5130078;27;20027;-77
2021/05/11 06:44:10;;;;;;;12.32;4.93;;;;;;;14.38;47.67;94062.16;5112242;28;20420;-77
2021/05/11 06:49:39;;;;;;;19.67;4.63;;;;;;;14.53;47.94;94066.13;5132933;27;20478;-77
2021/05/11 06:54:48;;;;;;;8.85;4.45;;;;;;;14.90;47.36;94062.72;5131180;27;20410;-76
2021/05/11 06:57:13;;;;;;;23.70;6.95;;;;;;;15.01;46.76;94056.56;5131537;27;20019;-77
2021/05/11 06:59:39;;;;;;;20.50;5.38;;;;;;;15.19;46.31;94061.72;5127646;27;20038;-73
2021/05/11 07:02:04;;;;;;;15.90;4.68;;;;;;;15.13;46.19;94055.78;5112099;28;20102;-73
2021/05/11 07:04:30;;;;;;;16.45;5.85;;;;;;;15.18;46.32;94049.41;5129051;27;20029;-74
2021/05/11 07:06:57;;;;;;;13.27;5.15;;;;;;;15.32;45.87;94049.81;5132161;27;20027;-76
2021/05/11 07:14:33;;;;;;;14.90;4.93;;;;;;;15.68;45.71;94053.56;5132514;27;20101;-76
2021/05/11 07:16:58;;;;;;;13.77;4.85;;;;;;;15.83;45.25;94052.91;5130935;27;20054;-76
2021/05/11 07:19:25;;;;;;;20.55;4.82;;;;;;;15.99;44.57;94050.25;5128017;27;20028;-75
2021/05/11 07:21:50;;;;;;;19.00;4.28;;;;;;;16.12;45.03;94053.69;5129972;27;20023;-75
2021/05/11 07:24:17;;;;;;;11.27;4.65;;;;;;;16.27;44.80;94059.44;5131921;27;20173;-74
2021/05/11 07:27:12;;;;;;;18.02;4.32;;;;;;;16.40;43.88;94044.78;5130818;27;20015;-75
2021/05/11 07:32:05;;;;;;;13.10;4.82;;;;;;;16.53;43.41;94040.13;5132076;27;20114;-73
2021/05/11 07:34:30;;;;;;;19.45;4.30;;;;;;;16.64;42.65;94039.25;5130879;27;20118;-74
2021/05/11 07:36:55;;;;;;;13.65;4.28;;;;;;;16.67;42.56;94035.09;5130817;27;20023;-74
2021/05/11 07:39:23;;;;;;;20.77;4.78;;;;;;;16.69;42.92;94037.44;5111316;28;20467;-75
2021/05/11 07:41:48;;;;;;;8.93;3.28;;;;;;;16.73;42.84;94032.91;5127274;27;20027;-75
2021/05/11 07:44:14;;;;;;;34.38;4.32;;;;;;;16.78;42.62;94035.34;5146707;27;20023;-74
2021/05/11 07:46:50;;;;;;;7.90;3.97;;;;;;;16.69;42.48;94032.03;5130314;27;20031;-75
2021/05/11 08:10:56;;;;;;;18.33;4.03;;;;;;;17.17;41.61;94005.91;5129436;27;20042;-72
2021/05/11 08:16:13;;;;;;;8.68;3.28;;;;;;;17.50;41.02;93993.91;5127822;27;20074;-72
2021/05/11 08:29:22;;;;;;;7.43;2.38;;;;;;;18.30;38.59;93988.91;5128230;27;20083;-71
2021/05/11 08:31:47;;;;;;;12.27;2.40;;;;;;;18.45;38.11;93990.72;5129401;27;20019;-72
2021/05/11 08:34:13;;;;;;;9.00;2.03;;;;;;;18.59;36.97;93990.97;5126593;27;20471;-72
2021/05/11 08:36:38;;;;;;;6.57;2.10;;;;;;;18.75;36.68;93976.56;5128370;27;20023;-72
2021/05/11 08:39:04;;;;;;;6.30;2.13;;;;;;;18.93;37.38;93984.97;5129219;27;20100;-74
2021/05/11 08:41:30;;;;;;;7.10;2.30;;;;;;;19.06;36.74;93989.03;5130737;27;20027;-74
2021/05/11 08:43:55;;;;;;;10.68;2.45;;;;;;;19.11;35.45;93986.03;5129383;27;20067;-72
2021/05/11 08:46:21;;;;;;;14.95;2.55;;;;;;;19.17;35.48;93983.78;5130366;27;20038;-72
2021/05/11 08:48:48;;;;;;;8.85;2.33;;;;;;;19.33;35.05;93989.78;5130841;27;20049;-72
2021/05/11 08:51:20;;;;;;;8.40;1.98;;;;;;;19.43;34.48;93991.84;5130250;27;20025;-72
2021/05/11 09:15:53;;;;;;;15.27;2.50;;;;;;;20.29;30.49;93975.09;5129417;27;20459;-73
2021/05/11 09:58:59;;;;;;;9.50;2.55;;;;;;;21.94;26.81;93943.69;5108670;28;20031;-72
2021/05/11 10:36:39;;;;;;;3.38;1.45;;;;;;;23.39;23.56;93897.97;5099928;27;20034;-75
2021/05/11 10:45:02;;;;;;;6.00;1.88;;;;;;;24.18;23.70;93908.50;5132132;27;20031;-70
2021/05/11 10:47:14;;;;;;;3.35;1.40;;;;;;;24.49;22.60;93903.22;5131020;27;20039;-71
2021/05/11 10:49:40;;;;;;;8.65;1.92;;;;;;;24.55;23.66;93898.94;5130597;27;20019;-72
2021/05/11 10:52:25;;;;;;;7.38;1.50;;;;;;;24.65;22.52;93896.50;5125364;27;20111;-72
2021/05/11 10:57:36;;;;;;;3.83;1.23;;;;;;;24.79;21.46;93896.38;5119448;27;20399;-75
2021/05/11 11:03:25;;;;;;;5.15;1.38;;;;;;;24.86;21.29;93890.13;5102908;27;20032;-74
2021/05/11 11:05:56;;;;;;;4.35;1.30;;;;;;;24.74;20.84;93883.22;5120826;27;20414;-75
2021/05/11 11:08:38;;;;;;;5.00;1.65;;;;;;;24.74;21.85;93878.53;5131253;27;20034;-75
2021/05/11 11:11:16;;;;;;;10.60;1.33;;;;;;;24.77;21.35;93883.19;5124425;27;20476;-76
2021/05/11 11:13:44;;;;;;;7.63;1.85;;;;;;;24.85;21.55;93875.69;5129055;27;20102;-76
2021/05/11 11:16:11;;;;;;;6.65;1.67;;;;;;;24.99;22.09;93880.22;5127603;27;20034;-76
2021/05/11 11:18:37;;;;;;;4.50;1.63;;;;;;;25.10;20.38;93878.19;5126806;27;20071;-76
2021/05/11 11:23:55;;;;;;;2.15;0.82;;;;;;;25.20;19.65;93862.91;5098349;27;20039;-75
2021/05/11 11:26:25;;;;;;;6.20;1.08;;;;;;;25.10;19.81;93866.50;5128313;27;20084;-75
2021/05/11 11:29:01;;;;;;;2.90;1.20;;;;;;;25.09;20.90;93870.41;5129801;27;20027;-74
2021/05/11 11:31:32;;;;;;;3.30;1.20;;;;;;;24.97;20.75;93858.84;5127620;27;20031;-75
2021/05/11 11:34:28;;;;;;;7.82;1.60;;;;;;;25.00;22.17;93851.81;5128805;27;20570;-74
2021/05/11 11:36:59;;;;;;;2.00;0.98;;;;;;;25.01;20.61;93856.88;5131165;27;20565;-75
2021/05/11 11:39:36;;;;;;;3.13;1.38;;;;;;;25.00;21.27;93851.81;5119982;27;20023;-76
2021/05/11 11:42:06;;;;;;;5.32;1.00;;;;;;;24.97;20.64;93855.34;5128999;27;20034;-75
2021/05/11 11:44:36;;;;;;;2.67;1.25;;;;;;;25.06;22.10;93850.19;5129259;27;20114;-75
2021/05/11 11:47:03;;;;;;;3.20;1.02;;;;;;;25.24;21.84;93844.56;5129753;27;20479;-74
2021/05/11 11:49:31;;;;;;;2.30;1.30;;;;;;;25.39;20.64;93842.44;5129095;27;20031;-75
2021/05/11 11:52:11;;;;;;;2.85;1.30;;;;;;;25.44;20.51;93841.97;5129640;27;20428;-77
2021/05/11 11:59:33;;;;;;;2.00;0.90;;;;;;;25.75;21.56;93840.03;5130933;27;20031;-74
2021/05/11 12:02:01;;;;;;;3.10;1.65;;;;;;;25.91;21.59;93834.00;5128805;27;20106;-75
2021/05/11 12:04:28;;;;;;;6.00;1.70;;;;;;;26.04;21.86;93828.75;5109888;28;20035;-76
2021/05/11 12:07:02;;;;;;;3.05;1.58;;;;;;;26.20;22.24;93820.69;5125500;27;20031;-76
2021/05/11 12:09:27;;;;;;;4.70;1.20;;;;;;;26.39;21.37;93826.63;5124356;27;20113;-78
2021/05/11 12:11:53;;;;;;;6.00;1.40;;;;;;;26.57;21.78;93812.69;5125987;27;20055;-78
2021/05/11 12:14:18;;;;;;;3.22;1.50;;;;;;;26.76;22.02;93811.19;5125760;27;20664;-79
2021/05/11 12:16:48;;;;;;;7.70;1.48;;;;;;;26.94;21.74;93810.88;5125536;27;20053;-78
2021/05/11 12:19:17;;;;;;;2.45;1.20;;;;;;;27.08;21.54;93804.38;5118790;27;20066;-78
2021/05/11 12:22:05;;;;;;;4.07;1.52;;;;;;;27.30;21.66;93800.06;5135282;27;20061;-77
2021/05/11 12:24:31;;;;;;;7.85;2.17;;;;;;;27.50;20.59;93799.25;5126845;27;20026;-74
2021/05/11 12:27:20;;;;;;;3.25;1.38;;;;;;;27.69;21.30;93792.97;5113752;27;20556;-76
2021/05/11 12:29:59;;;;;;;3.55;1.27;;;;;;;27.88;21.09;93799.63;5125337;27;20026;-73
2021/05/11 12:32:24;;;;;;;6.38;1.45;;;;;;;28.03;20.52;93786.41;5128023;27;20513;-76
2021/05/11 12:35:09;;;;;;;6.18;1.95;;;;;;;28.23;20.45;93786.31;5123951;27;20030;-75
2021/05/11 12:37:57;;;;;;;5.28;1.50;;;;;;;28.39;20.34;93782.78;5127692;27;20103;-75
2021/05/11 12:40:28;;;;;;;3.08;1.70;;;;;;;28.52;20.41;93778.19;5125482;27;20020;-75
2021/05/11 12:42:57;;;;;;;4.03;1.48;;;;;;;28.71;19.90;93773.00;5124651;27;20106;-74
2021/05/11 12:45:23;;;;;;;4.70;1.52;;;;;;;28.67;18.69;93764.13;5113571;27;20034;-75
2021/05/11 12:48:02;;;;;;;4.57;1.60;;;;;;;28.75;19.17;93766.22;5114561;27;20031;-75
2021/05/11 12:50:32;;;;;;;4.90;1.30;;;;;;;28.77;19.36;93761.09;5128058;27;20034;-75
2021/05/11 12:53:05;;;;;;;4.30;1.27;;;;;;;28.82;19.50;93765.25;5129099;27;20031;-74
2021/05/11 13:01:09;;;;;;;4.68;1.60;;;;;;;29.45;19.25;93758.44;5130292;27;20398;-74
2021/05/11 13:04:18;;;;;;;4.75;1.55;;;;;;;29.70;19.15;93765.19;5128658;27;20026;-74
2021/05/11 13:09:36;;;;;;;5.28;2.03;;;;;;;30.17;18.01;93759.06;5088889;28;20092;-76
2021/05/11 13:20:16;;;;;;;4.32;1.67;;;;;;;31.85;16.76;93743.38;5129435;27;20043;-73
2021/05/11 13:23:04;;;;;;;2.42;1.20;;;;;;;32.50;15.97;93752.63;5129702;27;20033;-74
2021/05/11 13:28:20;;;;;;;9.50;1.50;;;;;;;33.66;14.17;93747.25;5129072;27;20037;-75
2021/05/11 13:33:45;;;;;;;4.72;1.00;;;;;;;34.51;13.19;93749.19;5129430;27;20035;-74
2021/05/11 13:36:11;;;;;;;3.88;1.48;;;;;;;35.01;12.74;93738.38;5129331;27;20501;-74
2021/05/11 13:38:36;;;;;;;6.68;1.90;;;;;;;35.72;12.53;93733.09;5129068;27;20102;-75
2021/05/11 13:41:02;;;;;;;9.90;1.63;;;;;;;36.53;11.91;93731.78;5129153;27;20030;-75
2021/05/11 13:43:27;;;;;;;5.85;1.17;;;;;;;37.09;10.98;93732.47;5116670;27;20479;-74
2021/05/11 13:45:53;;;;;;;5.10;1.30;;;;;;;37.30;10.80;93727.66;5124710;28;20088;-74
2021/05/11 13:48:23;;;;;;;6.18;1.30;;;;;;;37.52;10.83;93734.69;5129960;27;20411;-75
2021/05/11 13:53:14;;;;;;;3.15;1.05;;;;;;;39.30;9.16;93724.34;5120910;27;20123;-75
2021/05/11 14:03:41;;;;;;;4.93;1.40;;;;;;;41.40;7.78;93717.13;5118675;27;20199;-76
2021/05/11 14:06:07;;;;;;;9.60;1.30;;;;;;;41.80;7.55;93716.84;5112223;28;20032;-76
2021/05/11 14:08:32;;;;;;;2.20;1.13;;;;;;;42.12;7.13;93724.75;5120063;27;20031;-77
2021/05/11 14:10:58;;;;;;;3.33;1.20;;;;;;;42.27;7.23;93713.91;5131040;27;20020;-77
2021/05/11 14:13:23;;;;;;;3.40;1.00;;;;;;;42.38;7.28;93724.22;5127308;27;20110;-76
2021/05/11 14:15:49;;;;;;;2.92;1.27;;;;;;;42.57;7.11;93715.91;5128244;27;20112;-76
2021/05/11 14:18:14;;;;;;;5.93;1.13;;;;;;;42.50;6.80;93717.25;5114879;27;20031;-76
2021/05/11 14:20:39;;;;;;;2.83;1.02;;;;;;;42.57;6.58;93718.72;5132128;27;20047;-76
2021/05/11 14:23:05;;;;;;;4.13;1.38;;;;;;;42.98;6.61;93712.88;5132746;27;20027;-76
2021/05/11 14:25:30;;;;;;;1.80;1.00;;;;;;;43.11;6.54;93703.78;5132231;27;20031;-76
2021/05/11 14:27:56;;;;;;;3.15;1.10;;;;;;;43.41;6.28;93702.88;5134205;27;20483;-77
2021/05/11 14:30:22;;;;;;;4.78;1.10;;;;;;;43.39;6.13;93706.22;5119734;27;20020;-75
2021/05/11 14:32:47;;;;;;;3.47;1.10;;;;;;;43.78;5.97;93701.31;5114061;27;20068;-76
2021/05/11 14:35:13;;;;;;;2.65;1.25;;;;;;;43.91;5.78;93697.78;5128719;27;20027;-76
2021/05/11 14:37:38;;;;;;;6.75;1.10;;;;;;;44.05;5.73;93700.09;5124115;27;20067;-77
2021/05/11 14:40:04;;;;;;;9.82;1.40;;;;;;;44.28;5.47;93696.91;5126157;27;20069;-76
2021/05/11 14:42:30;;;;;;;2.42;1.40;;;;;;;44.35;5.73;93695.50;5119473;27;20414;-74
2021/05/11 14:44:55;;;;;;;2.95;1.10;;;;;;;44.40;5.39;93695.38;5124084;27;20039;-74
2021/05/11 14:47:21;;;;;;;1.90;1.10;;;;;;;44.47;5.17;93691.19;5121089;27;20032;-74
2021/05/11 14:49:46;;;;;;;3.40;1.00;;;;;;;44.28;5.13;93687.72;5116887;27;20103;-75
2021/05/11 14:52:13;;;;;;;4.72;1.00;;;;;;;44.33;4.91;93687.59;5129711;27;20133;-76
2021/05/11 14:54:40;;;;;;;2.10;0.90;;;;;;;44.13;5.13;93686.19;5127121;27;20031;-76
2021/05/11 14:57:05;;;;;;;1.30;0.85;;;;;;;44.41;5.30;93682.09;5131835;27;20128;-76
2021/05/11 14:59:31;;;;;;;4.38;1.35;;;;;;;44.25;4.98;93681.13;5126891;27;20035;-77
2021/05/11 15:01:56;;;;;;;2.33;1.02;;;;;;;44.08;5.28;93677.88;5121123;27;20072;-77
2021/05/11 15:04:22;;;;;;;4.80;1.02;;;;;;;44.00;5.51;93677.72;5127769;27;20050;-77
2021/05/11 15:06:47;;;;;;;10.13;1.25;;;;;;;43.89;5.59;93681.50;5127113;27;20388;-76
2021/05/11 15:09:13;;;;;;;7.18;1.20;;;;;;;44.03;5.36;93671.03;5122799;27;20106;-77
2021/05/11 15:11:38;;;;;;;1.83;0.98;;;;;;;43.87;5.06;93672.84;5127036;27;20031;-77
2021/05/11 15:14:04;;;;;;;2.90;1.10;;;;;;;43.77;5.65;93666.13;5128688;27;20054;-76
2021/05/11 15:16:34;;;;;;;3.08;1.10;;;;;;;43.74;5.62;93658.78;5115104;27;20519;-76
2021/05/11 15:18:59;;;;;;;2.13;1.20;;;;;;;43.43;5.55;93655.41;5128966;27;20030;-76
2021/05/11 15:21:25;;;;;;;1.60;1.30;;;;;;;43.50;5.92;93651.22;5130767;27;20050;-78
2021/05/11 15:23:51;;;;;;;4.82;1.00;;;;;;;43.33;5.53;93659.91;5129898;27;20027;-77
2021/05/11 15:26:17;;;;;;;5.35;1.42;;;;;;;43.14;5.57;93657.88;5119413;27;20019;-79
2021/05/11 15:28:43;;;;;;;6.30;1.60;;;;;;;42.95;5.78;93662.72;5128262;27;20027;-79
2021/05/11 15:31:09;;;;;;;3.17;1.85;;;;;;;43.05;5.80;93652.63;5129937;27;20123;-78
2021/05/11 15:33:34;;;;;;;6.10;1.27;;;;;;;42.44;6.17;93654.94;5127979;27;20027;-77
2021/05/11 15:36:00;;;;;;;4.03;1.23;;;;;;;42.17;6.15;93648.34;5129277;27;20030;-76
2021/05/11 15:38:29;;;;;;;3.45;1.20;;;;;;;42.18;6.30;93644.28;5126952;27;20032;-77
2021/05/11 15:40:55;;;;;;;4.05;1.33;;;;;;;42.14;6.37;93646.59;5130275;27;20030;-77
2021/05/11 15:43:21;;;;;;;2.78;1.52;;;;;;;41.89;6.50;93644.53;5115701;27;20102;-76
2021/05/11 15:45:47;;;;;;;3.80;1.50;;;;;;;41.65;6.82;93645.25;5127384;27;20061;-76
2021/05/11 15:48:14;;;;;;;4.82;1.30;;;;;;;41.17;6.98;93632.63;5127451;27;20392;-76
2021/05/11 15:50:46;;;;;;;4.15;1.95;;;;;;;41.10;6.98;93638.78;5127240;27;20083;-75